createdAt,value
2022-08-12T00:02:07.205Z,17.54
2022-08-12T00:04:31.793Z,17.53
2022-08-12T00:06:53.294Z,17.50
2022-08-12T00:09:15.449Z,17.47
2022-08-12T00:11:37.372Z,17.49
2022-08-12T00:13:58.724Z,17.49
2022-08-12T00:16:20.698Z,17.45
2022-08-12T00:18:42.059Z,17.44
2022-08-12T00:21:03.509Z,17.42
2022-08-12T00:23:25.249Z,17.42
2022-08-12T00:26:20.655Z,17.41
2022-08-12T00:28:39.230Z,17.41
2022-08-12T00:31:00.547Z,17.42
2022-08-12T00:33:22.203Z,17.38
2022-08-12T00:35:42.969Z,17.38
2022-08-12T00:38:05.183Z,17.30
2022-08-12T00:40:29.069Z,17.27
2022-08-12T00:42:33.079Z,17.29
2022-08-12T00:44:35.898Z,17.31
2022-08-12T00:46:49.697Z,17.35
2022-08-12T00:48:52.701Z,17.32
2022-08-12T00:50:56.916Z,17.34
2022-08-12T00:53:02.787Z,17.31
2022-08-12T00:55:06.043Z,17.29
2022-08-12T00:57:15.028Z,17.29
2022-08-12T00:59:17.652Z,17.24
2022-08-12T01:01:22.083Z,17.24
2022-08-12T01:03:26.258Z,17.23
2022-08-12T01:05:50.336Z,17.22
2022-08-12T01:08:12.441Z,17.19
2022-08-12T01:10:33.474Z,17.16
2022-08-12T01:12:39.222Z,17.14
2022-08-12T01:14:43.998Z,17.14
2022-08-12T01:16:48.838Z,17.14
2022-08-12T01:18:55.406Z,17.14
2022-08-12T01:21:19.680Z,17.15
2022-08-12T01:23:47.778Z,17.14
2022-08-12T01:25:55.677Z,17.11
2022-08-12T01:28:02.059Z,17.11
2022-08-12T01:30:07.955Z,17.11
2022-08-12T01:32:12.947Z,17.11
2022-08-12T01:34:36.642Z,17.11
2022-08-12T01:36:46.864Z,17.11
2022-08-12T01:38:51.335Z,17.13
2022-08-12T01:40:59.286Z,17.14
2022-08-12T01:43:17.178Z,17.16
2022-08-12T01:45:24.994Z,17.15
2022-08-12T01:47:47.365Z,17.17
2022-08-12T01:50:05.568Z,17.18
2022-08-12T01:52:22.461Z,17.19
2022-08-12T01:54:27.796Z,17.16
2022-08-12T01:56:42.002Z,17.22
2022-08-12T01:59:04.923Z,17.25
2022-08-12T02:01:12.103Z,17.26
2022-08-12T02:03:26.590Z,17.29
2022-08-12T02:06:08.669Z,17.33
2022-08-12T02:08:48.743Z,17.34
2022-08-12T02:11:19.369Z,17.36
2022-08-12T02:13:49.770Z,17.39
2022-08-12T02:16:28.263Z,17.45
2022-08-12T02:19:03.565Z,17.49
2022-08-12T02:21:47.910Z,17.52
2022-08-12T02:23:51.075Z,17.52
2022-08-12T02:25:57.645Z,17.56
2022-08-12T02:28:06.102Z,17.62
2022-08-12T02:30:14.650Z,17.64
2022-08-12T02:32:17.404Z,17.69
2022-08-12T02:34:22.096Z,17.72
2022-08-12T02:36:25.461Z,17.77
2022-08-12T02:38:29.286Z,17.78
2022-08-12T02:40:35.277Z,17.82
2022-08-12T02:42:44.569Z,17.86
2022-08-12T02:44:51.855Z,17.88
2022-08-12T02:46:57.160Z,17.94
2022-08-12T02:49:10.045Z,17.96
2022-08-12T02:51:23.746Z,18.04
2022-08-12T02:53:28.166Z,18.23
2022-08-12T02:55:35.249Z,18.54
2022-08-12T02:57:39.859Z,18.68
2022-08-12T02:59:43.506Z,18.74
2022-08-12T03:01:48.725Z,18.77
2022-08-12T03:03:55.830Z,18.77
2022-08-12T03:06:13.492Z,18.78
2022-08-12T03:08:32.389Z,18.80
2022-08-12T03:10:42.539Z,18.78
2022-08-12T03:12:51.023Z,18.77
2022-08-12T03:14:56.170Z,18.80
2022-08-12T03:17:11.605Z,18.77
2022-08-12T03:19:14.323Z,18.84
2022-08-12T03:21:52.226Z,18.83
2022-08-12T03:23:42.687Z,18.86
2022-08-12T03:25:45.463Z,18.89
2022-08-12T03:27:51.884Z,18.90
2022-08-12T03:29:57.407Z,18.93
2022-08-12T03:32:00.797Z,18.98
2022-08-12T03:34:09.938Z,19.02
2022-08-12T03:36:18.427Z,19.05
2022-08-12T03:38:27.673Z,19.08
2022-08-12T03:41:01.102Z,19.11
2022-08-12T03:43:25.368Z,19.11
2022-08-12T03:45:51.847Z,19.10
2022-08-12T03:48:19.116Z,19.05
2022-08-12T03:50:40.830Z,19.02
2022-08-12T03:53:02.229Z,19.04
2022-08-12T03:55:24.440Z,19.06
2022-08-12T03:57:46.085Z,19.03
2022-08-12T04:00:10.031Z,19.20
2022-08-12T04:02:17.025Z,19.27
2022-08-12T04:04:23.768Z,19.30
2022-08-12T04:06:34.942Z,19.36
2022-08-12T04:08:39.612Z,19.40
2022-08-12T04:11:00.914Z,19.47
2022-08-12T04:13:17.043Z,19.48
2022-08-12T04:15:20.157Z,19.54
2022-08-12T04:17:23.445Z,19.57
2022-08-12T04:19:26.867Z,19.59
2022-08-12T04:21:32.146Z,19.63
2022-08-12T04:23:35.884Z,19.64
2022-08-12T04:25:40.320Z,19.71
2022-08-12T04:27:46.364Z,19.72
2022-08-12T04:30:29.750Z,19.68
2022-08-12T04:32:12.488Z,19.82
2022-08-12T04:34:16.105Z,19.86
2022-08-12T04:36:18.848Z,19.93
2022-08-12T04:38:24.384Z,19.93
2022-08-12T04:40:30.548Z,19.99
2022-08-12T04:42:33.222Z,19.98
2022-08-12T04:44:35.879Z,20.08
2022-08-12T04:46:39.243Z,20.13
2022-08-12T04:48:42.145Z,20.17
2022-08-12T04:50:45.823Z,20.25
2022-08-12T04:52:49.622Z,20.29
2022-08-12T04:54:52.533Z,20.35
2022-08-12T04:57:04.526Z,20.44
2022-08-12T04:59:08.090Z,20.51
2022-08-12T05:01:11.112Z,20.58
2022-08-12T05:03:14.442Z,20.64
2022-08-12T05:05:25.050Z,20.71
2022-08-12T05:07:27.942Z,20.77
2022-08-12T05:10:00.425Z,20.80
2022-08-12T05:11:54.170Z,20.85
2022-08-12T05:14:00.568Z,20.90
2022-08-12T05:16:09.285Z,20.95
2022-08-12T05:18:20.357Z,21.03
2022-08-12T05:20:26.286Z,21.04
2022-08-12T05:22:28.970Z,21.13
2022-08-12T05:24:31.610Z,21.20
2022-08-12T05:26:34.268Z,21.23
2022-08-12T05:28:37.124Z,21.26
2022-08-12T05:30:41.619Z,21.30
2022-08-12T05:32:44.191Z,21.33
2022-08-12T05:34:50.816Z,21.34
2022-08-12T05:36:53.505Z,21.33
2022-08-12T05:38:59.629Z,21.38
2022-08-12T05:41:05.135Z,21.48
2022-08-12T05:43:08.362Z,21.55
2022-08-12T05:45:11.194Z,21.61
2022-08-12T05:47:14.852Z,21.68
2022-08-12T05:49:17.562Z,21.74
2022-08-12T05:51:24.675Z,21.78
2022-08-12T05:53:32.744Z,21.84
2022-08-12T05:55:36.664Z,21.92
2022-08-12T05:57:39.403Z,21.94
2022-08-12T05:59:42.311Z,21.97
2022-08-12T06:02:10.418Z,22.01
2022-08-12T06:04:10.742Z,22.03
2022-08-12T06:06:17.294Z,22.10
2022-08-12T06:08:20.413Z,22.18
2022-08-12T06:10:32.308Z,22.25
2022-08-12T06:12:36.113Z,22.21
2022-08-12T06:14:39.418Z,22.20
2022-08-12T06:16:44.177Z,22.23
2022-08-12T06:18:47.466Z,22.27
2022-08-12T06:20:50.076Z,22.34
2022-08-12T06:22:56.814Z,22.40
2022-08-12T06:25:00.678Z,22.46
2022-08-12T06:27:03.612Z,22.53
2022-08-12T06:29:06.234Z,22.56
2022-08-12T06:31:26.702Z,22.59
2022-08-12T06:33:55.038Z,22.65
2022-08-12T06:35:58.624Z,22.77
2022-08-12T06:38:03.859Z,22.81
2022-08-12T06:40:11.293Z,22.91
2022-08-12T06:42:33.559Z,22.98
2022-08-12T06:44:36.514Z,23.05
2022-08-12T06:46:39.679Z,23.13
2022-08-12T06:48:45.167Z,23.21
2022-08-12T06:50:49.508Z,23.30
2022-08-12T06:52:52.370Z,23.42
2022-08-12T06:54:55.952Z,23.50
2022-08-12T06:58:08.294Z,23.55
2022-08-12T06:59:21.808Z,23.55
2022-08-12T07:01:25.602Z,23.53
2022-08-12T07:03:28.988Z,23.58
2022-08-12T07:05:32.058Z,23.65
2022-08-12T07:07:34.610Z,23.71
2022-08-12T07:09:58.068Z,23.72
2022-08-12T07:12:02.676Z,23.72
2022-08-12T07:14:12.366Z,23.73
2022-08-12T07:16:18.029Z,23.65
2022-08-12T07:18:20.690Z,23.62
2022-08-12T07:20:50.258Z,23.52
2022-08-12T07:22:46.236Z,23.46
2022-08-12T07:25:11.163Z,23.54
2022-08-12T07:27:14.599Z,23.63
2022-08-12T07:29:17.452Z,23.65
2022-08-12T07:31:20.093Z,23.62
2022-08-12T07:33:25.626Z,23.59
2022-08-12T07:35:33.207Z,23.67
2022-08-12T07:37:42.240Z,23.72
2022-08-12T07:39:50.763Z,23.82
2022-08-12T07:42:04.788Z,23.87
2022-08-12T07:44:09.416Z,23.90
2022-08-12T07:46:15.371Z,23.96
2022-08-12T07:48:18.043Z,24.00
2022-08-12T07:50:23.738Z,24.05
2022-08-12T07:52:26.691Z,24.09
2022-08-12T07:54:29.253Z,24.24
2022-08-12T07:56:32.542Z,24.01
2022-08-12T07:58:38.566Z,23.95
2022-08-12T08:00:41.123Z,23.96
2022-08-12T08:02:43.810Z,24.00
2022-08-12T08:04:58.330Z,24.04
2022-08-12T08:07:02.004Z,24.04
2022-08-12T08:09:05.704Z,24.13
2022-08-12T08:11:27.103Z,24.06
2022-08-12T08:13:29.670Z,24.12
2022-08-12T08:16:01.765Z,24.18
2022-08-12T08:18:04.711Z,24.18
2022-08-12T08:20:10.713Z,24.31
2022-08-12T08:22:13.488Z,24.41
2022-08-12T08:24:16.228Z,24.40
2022-08-12T08:26:20.834Z,24.44
2022-08-12T08:28:23.413Z,24.43
2022-08-12T08:30:27.579Z,24.47
2022-08-12T08:32:30.066Z,24.55
2022-08-12T08:34:53.960Z,24.55
2022-08-12T08:36:58.038Z,24.54
2022-08-12T08:39:00.554Z,24.50
2022-08-12T08:42:15.683Z,24.44
2022-08-12T08:43:45.788Z,24.54
2022-08-12T08:45:49.264Z,24.61
2022-08-12T08:47:52.009Z,24.69
2022-08-12T08:49:57.650Z,24.80
2022-08-12T08:52:00.280Z,24.85
2022-08-12T08:54:03.137Z,24.79
2022-08-12T08:56:05.936Z,24.65
2022-08-12T08:58:09.115Z,24.71
2022-08-12T09:00:17.507Z,24.85
2022-08-12T09:02:20.072Z,24.79
2022-08-12T09:06:53.369Z,24.77
2022-08-12T09:08:56.924Z,24.81
2022-08-12T09:12:06.451Z,24.76
2022-08-12T09:14:12.384Z,24.59
2022-08-12T09:16:07.359Z,24.56
2022-08-12T09:18:12.058Z,24.63
2022-08-12T09:20:16.891Z,24.65
2022-08-12T09:22:21.024Z,24.83
2022-08-12T09:24:27.662Z,24.77
2022-08-12T09:26:31.491Z,24.86
2022-08-12T09:28:37.090Z,25.03
2022-08-12T09:30:44.870Z,25.18
2022-08-12T09:33:03.972Z,25.18
2022-08-12T09:35:22.494Z,25.08
2022-08-12T09:37:55.375Z,25.01
2022-08-12T09:40:06.164Z,24.77
2022-08-12T09:42:56.878Z,24.83
2022-08-12T09:45:17.785Z,24.88
2022-08-12T09:47:29.231Z,25.01
2022-08-12T09:49:37.162Z,25.00
2022-08-12T09:51:47.717Z,25.07
2022-08-12T09:54:08.425Z,25.21
2022-08-12T09:57:00.569Z,25.25
2022-08-12T09:58:58.445Z,25.11
2022-08-12T10:01:06.302Z,25.05
2022-08-12T10:03:31.796Z,25.18
2022-08-12T10:06:19.437Z,25.29
2022-08-12T10:08:10.659Z,25.33
2022-08-12T10:10:22.311Z,25.33
2022-08-12T10:13:07.257Z,25.28
2022-08-12T10:15:07.299Z,25.14
2022-08-12T10:17:10.028Z,25.21
2022-08-12T10:19:17.675Z,25.25
2022-08-12T10:21:23.131Z,25.36
2022-08-12T10:23:39.454Z,25.42
2022-08-12T10:26:18.523Z,25.57
2022-08-12T10:29:01.842Z,25.69
2022-08-12T10:31:06.188Z,25.70
2022-08-12T10:33:17.971Z,25.82
2022-08-12T10:35:22.041Z,25.71
2022-08-12T10:38:33.437Z,25.74
2022-08-12T10:40:03.200Z,25.65
2022-08-12T10:42:31.181Z,25.77
2022-08-12T10:44:36.786Z,25.76
2022-08-12T10:46:39.962Z,25.96
2022-08-12T10:48:58.445Z,26.09
2022-08-12T10:52:04.804Z,26.08
2022-08-12T10:53:45.944Z,26.14
2022-08-12T10:55:56.259Z,26.24
2022-08-12T10:58:27.577Z,26.26
2022-08-12T11:00:34.662Z,26.20
2022-08-12T11:07:03.402Z,26.14
2022-08-12T11:08:37.188Z,26.27
2022-08-12T11:10:01.687Z,26.25
2022-08-12T11:12:35.748Z,26.48
2022-08-12T11:14:49.922Z,26.58
2022-08-12T11:17:34.149Z,26.55
2022-08-12T11:19:22.500Z,26.32
2022-08-12T11:21:57.513Z,26.52
2022-08-12T11:23:53.693Z,26.90
2022-08-12T11:26:00.492Z,26.79
2022-08-12T11:28:08.338Z,26.85
2022-08-12T11:30:31.101Z,26.84
2022-08-12T11:32:39.169Z,26.82
2022-08-12T11:34:53.607Z,26.88
2022-08-12T11:37:01.218Z,27.12
2022-08-12T11:39:07.502Z,27.30
2022-08-12T11:41:10.277Z,27.56
2022-08-12T11:43:19.709Z,27.80
2022-08-12T11:45:23.106Z,28.01
2022-08-12T11:47:25.894Z,28.24
2022-08-12T11:49:32.316Z,28.57
2022-08-12T11:51:36.369Z,28.72
2022-08-12T11:53:57.169Z,28.82
2022-08-12T11:56:05.059Z,29.17
2022-08-12T11:58:44.144Z,29.15
2022-08-12T12:02:53.996Z,29.32
2022-08-12T12:04:57.113Z,29.40
2022-08-12T12:07:06.675Z,29.45
2022-08-12T12:09:09.523Z,29.59
2022-08-12T12:11:12.196Z,29.70
2022-08-12T12:14:05.326Z,29.69
2022-08-12T12:15:41.229Z,29.78
2022-08-12T12:17:43.918Z,29.82
2022-08-12T12:19:46.609Z,29.90
2022-08-12T12:21:49.717Z,30.01
2022-08-12T12:23:52.347Z,30.06
2022-08-12T12:26:08.119Z,29.78
2022-08-12T12:28:36.931Z,29.64
2022-08-12T12:30:37.814Z,30.01
2022-08-12T12:32:40.532Z,30.18
2022-08-12T12:35:13.872Z,30.26
2022-08-12T12:37:05.983Z,30.27
2022-08-12T12:39:10.431Z,30.52
2022-08-12T12:41:16.463Z,30.58
2022-08-12T12:43:28.606Z,30.68
2022-08-12T12:45:44.175Z,30.61
2022-08-12T12:47:59.086Z,30.79
2022-08-12T12:50:01.726Z,30.92
2022-08-12T12:52:19.250Z,30.99
2022-08-12T12:54:28.971Z,31.18
2022-08-12T12:56:34.421Z,31.09
2022-08-12T12:58:37.950Z,30.87
2022-08-12T13:00:50.997Z,30.77
2022-08-12T13:02:58.271Z,30.85
2022-08-12T13:05:01.385Z,30.61
2022-08-12T13:07:06.847Z,30.71
2022-08-12T13:09:13.261Z,30.92
2022-08-12T13:11:16.012Z,30.76
2022-08-12T13:14:07.845Z,30.94
2022-08-12T13:15:45.360Z,30.89
2022-08-12T13:18:02.436Z,31.28
2022-08-12T13:20:11.412Z,31.38
2022-08-12T13:22:33.984Z,31.13
2022-08-12T13:24:39.705Z,31.23
2022-08-12T13:26:42.630Z,31.45
2022-08-12T13:28:53.122Z,31.35
2022-08-12T13:31:00.018Z,31.64
2022-08-12T13:33:02.987Z,31.67
2022-08-12T13:35:19.757Z,31.84
2022-08-12T13:37:54.475Z,31.96
2022-08-12T13:39:59.122Z,32.18
2022-08-12T13:42:14.358Z,31.79
2022-08-12T13:44:20.123Z,32.14
2022-08-12T13:46:25.833Z,32.55
2022-08-12T13:48:30.092Z,32.79
2022-08-12T13:50:36.699Z,32.89
2022-08-12T13:52:40.278Z,33.02
2022-08-12T13:54:56.359Z,33.18
2022-08-12T13:56:59.285Z,33.15
2022-08-12T13:59:08.534Z,33.09
2022-08-12T14:01:11.466Z,33.24
2022-08-12T14:03:16.389Z,33.04
2022-08-12T14:05:37.463Z,33.01
2022-08-12T14:07:54.107Z,33.02
2022-08-12T14:10:16.174Z,33.00
2022-08-12T14:12:21.750Z,32.93
2022-08-12T14:14:31.259Z,32.95
2022-08-12T14:16:49.131Z,33.17
2022-08-12T14:18:54.739Z,33.32
2022-08-12T14:21:04.364Z,33.49
2022-08-12T14:23:16.508Z,33.48
2022-08-12T14:25:30.603Z,33.77
2022-08-12T14:28:02.523Z,33.82
2022-08-12T14:30:05.495Z,34.15
2022-08-12T14:32:18.131Z,34.63
2022-08-12T14:34:20.742Z,34.80
2022-08-12T14:36:30.804Z,34.71
2022-08-12T14:38:42.585Z,34.47
2022-08-12T14:40:50.803Z,34.55
2022-08-12T14:42:54.109Z,34.82
2022-08-12T14:45:01.033Z,34.63
2022-08-12T14:47:07.989Z,34.62
2022-08-12T14:50:33.378Z,34.69
2022-08-12T14:52:59.078Z,34.21
2022-08-12T14:56:08.921Z,34.41
2022-08-12T14:59:23.393Z,34.84
2022-08-12T15:01:42.672Z,34.06
2022-08-12T15:03:58.045Z,33.75
2022-08-12T15:06:44.717Z,33.63
2022-08-12T15:08:33.621Z,33.66
2022-08-12T15:10:37.937Z,33.65
2022-08-12T15:12:40.907Z,33.80
2022-08-12T15:14:45.618Z,33.71
2022-08-12T15:16:48.902Z,33.26
2022-08-12T15:18:55.396Z,32.40
2022-08-12T15:21:04.969Z,31.92
2022-08-12T15:23:17.438Z,31.37
2022-08-12T15:25:20.945Z,30.78
2022-08-12T15:27:31.693Z,30.33
2022-08-12T15:29:46.063Z,30.01
2022-08-12T15:32:00.631Z,29.69
2022-08-12T15:34:07.980Z,29.50
2022-08-12T15:36:19.177Z,29.27
2022-08-12T15:38:31.579Z,28.91
2022-08-12T15:40:38.571Z,28.72
2022-08-12T15:42:51.087Z,28.57
2022-08-12T15:44:54.701Z,28.33
2022-08-12T15:46:58.953Z,28.06
2022-08-12T15:49:01.477Z,27.92
2022-08-12T15:51:04.501Z,27.67
2022-08-12T15:53:14.545Z,27.46
2022-08-12T15:55:20.254Z,27.30
2022-08-12T15:57:24.676Z,27.15
2022-08-12T15:59:51.198Z,27.03
2022-08-12T16:01:50.713Z,26.86
2022-08-12T16:04:00.816Z,26.68
2022-08-12T16:06:11.322Z,26.56
2022-08-12T16:08:24.018Z,26.40
2022-08-12T16:10:31.175Z,26.37
2022-08-12T16:12:39.817Z,26.30
2022-08-12T16:14:42.407Z,26.35
2022-08-12T16:16:48.652Z,26.20
2022-08-12T16:18:59.635Z,26.10
2022-08-12T16:21:09.128Z,25.95
2022-08-12T16:23:35.868Z,25.78
2022-08-12T16:26:02.857Z,25.59
2022-08-12T16:28:03.519Z,25.49
2022-08-12T16:30:06.704Z,25.52
2022-08-12T16:32:09.435Z,25.43
2022-08-12T16:34:38.431Z,25.35
2022-08-12T16:36:43.090Z,25.25
2022-08-12T16:38:46.125Z,25.18
2022-08-12T16:40:48.800Z,25.08
2022-08-12T16:43:01.576Z,24.94
2022-08-12T16:45:04.910Z,24.85
2022-08-12T16:47:10.849Z,24.77
2022-08-12T16:49:19.472Z,24.69
2022-08-12T16:51:27.086Z,24.61
2022-08-12T16:53:43.918Z,24.61
2022-08-12T16:55:51.988Z,24.52
2022-08-12T16:57:56.498Z,24.42
2022-08-12T16:59:59.170Z,24.34
2022-08-12T17:02:02.720Z,24.25
2022-08-12T17:04:09.480Z,24.19
2022-08-12T17:06:13.142Z,24.09
2022-08-12T17:08:29.213Z,24.01
2022-08-12T17:10:36.715Z,23.92
2022-08-12T17:12:40.075Z,23.84
2022-08-12T17:14:42.892Z,23.78
2022-08-12T17:16:52.159Z,23.72
2022-08-12T17:18:57.465Z,23.62
2022-08-12T17:21:08.173Z,23.56
2022-08-12T17:23:19.614Z,23.49
2022-08-12T17:25:22.945Z,23.44
2022-08-12T17:27:30.894Z,23.38
2022-08-12T17:30:01.475Z,23.37
2022-08-12T17:32:05.318Z,23.37
2022-08-12T17:34:17.269Z,23.32
2022-08-12T17:36:23.841Z,23.28
2022-08-12T17:38:29.653Z,23.25
2022-08-12T17:40:37.049Z,23.19
2022-08-12T17:42:42.482Z,23.16
2022-08-12T17:44:45.118Z,23.11
2022-08-12T17:46:53.588Z,23.08
2022-08-12T17:48:57.836Z,23.03
2022-08-12T17:51:02.932Z,22.97
2022-08-12T17:53:08.074Z,22.94
2022-08-12T17:55:40.527Z,22.90
2022-08-12T17:57:41.661Z,22.83
2022-08-12T17:59:47.815Z,22.76
2022-08-12T18:01:51.783Z,22.73
2022-08-12T18:04:05.321Z,22.69
2022-08-12T18:06:27.982Z,22.58
2022-08-12T18:08:33.553Z,22.49
2022-08-12T18:10:55.667Z,22.45
2022-08-12T18:13:02.418Z,22.34
2022-08-12T18:15:09.071Z,22.28
2022-08-12T18:17:14.099Z,22.21
2022-08-12T18:19:17.711Z,22.14
2022-08-12T18:21:20.300Z,22.10
2022-08-12T18:23:26.005Z,22.06
2022-08-12T18:26:15.768Z,22.03
2022-08-12T18:28:16.695Z,21.94
2022-08-12T18:30:29.942Z,21.88
2022-08-12T18:32:53.893Z,21.85
2022-08-12T18:35:10.844Z,21.81
2022-08-12T18:37:29.449Z,21.74
2022-08-12T18:39:56.692Z,21.68
2022-08-12T18:41:59.943Z,21.61
2022-08-12T18:44:09.498Z,21.59
2022-08-12T18:46:13.659Z,21.55
2022-08-12T18:48:16.789Z,21.50
2022-08-12T18:50:19.386Z,21.48
2022-08-12T18:52:31.072Z,21.42
2022-08-12T18:54:36.189Z,21.38
2022-08-12T18:56:39.726Z,21.34
2022-08-12T18:58:59.584Z,21.31
2022-08-12T19:01:05.562Z,21.27
2022-08-12T19:03:23.556Z,21.21
2022-08-12T19:05:53.367Z,21.14
2022-08-12T19:08:01.688Z,21.11
2022-08-12T19:10:07.799Z,21.08
2022-08-12T19:12:30.634Z,21.01
2022-08-12T19:14:35.683Z,20.97
2022-08-12T19:16:40.102Z,20.93
2022-08-12T19:18:44.675Z,20.90
2022-08-12T19:22:59.877Z,20.87
2022-08-12T19:25:59.336Z,20.80
2022-08-12T19:27:50.982Z,20.74
2022-08-12T19:30:06.469Z,20.71
2022-08-12T19:32:14.412Z,20.63
2022-08-12T19:34:42.037Z,20.61
2022-08-12T19:36:43.667Z,20.55
2022-08-12T19:38:56.423Z,20.54
2022-08-12T19:41:03.997Z,20.53
2022-08-12T19:43:20.703Z,20.49
2022-08-12T19:45:23.665Z,20.50
2022-08-12T19:47:46.854Z,20.47
2022-08-12T19:49:55.112Z,20.44
2022-08-12T19:51:57.896Z,20.46
2022-08-12T19:54:01.619Z,20.45
2022-08-12T19:56:05.312Z,20.42
2022-08-12T19:58:18.266Z,20.38
2022-08-12T20:00:22.555Z,20.38
2022-08-12T20:02:33.095Z,20.38
2022-08-12T20:04:40.240Z,20.34
2022-08-12T20:06:51.436Z,20.32
2022-08-12T20:08:57.133Z,20.27
2022-08-12T20:12:11.455Z,20.26
2022-08-12T20:13:27.012Z,20.26
2022-08-12T20:15:44.985Z,20.27
2022-08-12T20:17:50.997Z,20.25
2022-08-12T20:20:17.306Z,20.24
2022-08-12T20:22:23.897Z,20.19
2022-08-12T20:24:37.818Z,20.14
2022-08-12T20:26:44.223Z,20.08
2022-08-12T20:28:53.526Z,20.04
2022-08-12T20:31:00.011Z,20.01
2022-08-12T20:33:06.822Z,19.98
2022-08-12T20:35:24.346Z,19.91
2022-08-12T20:38:06.865Z,19.82
2022-08-12T20:39:56.490Z,19.75
2022-08-12T20:42:07.351Z,19.72
2022-08-12T20:44:16.866Z,19.67
2022-08-12T20:46:25.614Z,19.63
2022-08-12T20:48:30.591Z,19.60
2022-08-12T20:50:36.930Z,19.55
2022-08-12T20:52:40.318Z,19.52
2022-08-12T20:54:51.328Z,19.50
2022-08-12T20:56:54.200Z,19.44
2022-08-12T20:58:58.098Z,19.44
2022-08-12T21:01:02.396Z,19.39
2022-08-12T21:03:24.546Z,19.35
2022-08-12T21:06:12.299Z,19.32
2022-08-12T21:08:11.900Z,19.23
2022-08-12T21:10:14.876Z,19.26
2022-08-12T21:12:30.924Z,19.26
2022-08-12T21:14:53.541Z,19.25
2022-08-12T21:17:01.117Z,19.25
2022-08-12T21:19:08.006Z,19.23
2022-08-12T21:21:23.227Z,19.21
2022-08-12T21:23:30.796Z,19.17
2022-08-12T21:25:45.369Z,19.11
2022-08-12T21:27:57.862Z,19.06
2022-08-12T21:30:06.557Z,19.03
2022-08-12T21:32:39.826Z,19.00
2022-08-12T21:34:34.377Z,18.93
2022-08-12T21:36:48.202Z,18.92
2022-08-12T21:39:01.593Z,18.86
2022-08-12T21:41:23.311Z,18.83
2022-08-12T21:43:25.964Z,18.78
2022-08-12T21:45:47.858Z,18.80
2022-08-12T21:48:10.166Z,18.76
2022-08-12T21:50:15.572Z,18.75
2022-08-12T21:52:18.151Z,18.72
2022-08-12T21:54:32.808Z,18.69
2022-08-12T21:56:35.479Z,18.65
2022-08-12T21:58:39.537Z,18.63
2022-08-12T22:00:42.296Z,18.62
2022-08-12T22:03:07.911Z,18.56
2022-08-12T22:05:29.113Z,18.55
2022-08-12T22:07:46.285Z,18.54
2022-08-12T22:09:57.216Z,18.54
2022-08-12T22:12:21.953Z,18.53
2022-08-12T22:14:26.852Z,18.50
2022-08-12T22:16:31.105Z,18.48
2022-08-12T22:18:50.595Z,18.45
2022-08-12T22:20:56.831Z,18.44
2022-08-12T22:23:02.210Z,18.42
2022-08-12T22:25:05.914Z,18.40
2022-08-12T22:27:32.047Z,18.39
2022-08-12T22:29:51.038Z,18.36
2022-08-12T22:31:54.790Z,18.32
2022-08-12T22:34:02.766Z,18.30
2022-08-12T22:36:06.967Z,18.26
2022-08-12T22:38:14.369Z,18.27
2022-08-12T22:40:20.086Z,18.26
2022-08-12T22:42:41.349Z,18.25
2022-08-12T22:45:02.540Z,18.24
2022-08-12T22:47:53.953Z,18.24
2022-08-12T22:49:53.620Z,18.20
2022-08-12T22:52:08.323Z,18.16
2022-08-12T22:54:35.468Z,18.18
2022-08-12T22:56:33.980Z,18.17
2022-08-12T22:58:40.654Z,18.17
2022-08-12T23:00:48.533Z,18.20
2022-08-12T23:03:02.886Z,18.18
2022-08-12T23:05:10.542Z,18.15
2022-08-12T23:07:13.349Z,18.12
2022-08-12T23:09:17.668Z,18.10
2022-08-12T23:11:33.868Z,18.10
2022-08-12T23:13:55.043Z,18.08
2022-08-12T23:16:00.689Z,18.08
2022-08-12T23:18:03.792Z,18.07
2022-08-12T23:20:06.963Z,18.08
2022-08-12T23:22:36.574Z,18.07
2022-08-12T23:24:37.012Z,17.96
2022-08-12T23:26:59.709Z,18.01
2022-08-12T23:29:29.330Z,17.98
2022-08-12T23:32:02.834Z,17.94
2022-08-12T23:34:00.856Z,17.91
2022-08-12T23:36:04.911Z,17.89
2022-08-12T23:38:10.591Z,17.87
2022-08-12T23:40:32.908Z,17.82
2022-08-12T23:42:35.646Z,17.80
2022-08-12T23:44:40.244Z,17.82
2022-08-12T23:46:43.253Z,17.80
2022-08-12T23:48:53.201Z,17.81
2022-08-12T23:51:21.696Z,17.80
2022-08-12T23:53:32.430Z,17.78
2022-08-12T23:55:40.707Z,17.78
2022-08-12T23:58:17.122Z,17.78
